Terminal Aerodrome Forecast
Issued by NWS Cleveland, OH

Home | Current Version | Previous Version | Text Only | Print | Product List | Glossary On
Versions: 1 2 3 4 5 6 7 8 9 10 11 12 13 14 15
676
FTUS41 KCLE 262326
TAFTOL
TAF
KTOL 262326Z 2700/2724 VRB03KT P6SM FEW090 BKN200
      TEMPO 2710/2712 5SM BR
     FM271900 08004KT P6SM SCT030 BKN040=

USA.gov is the U.S. government's official web portal to all federal, state and local government web resources and services.